Time;durP1;ratioP1;P1;durP2;ratioP2;P2;SDS_P1;SDS_P2;PMS_P1;PMS_P2;Temp;Humidity;BMP_temperature;BMP_pressure;BME280_temperature;BME280_humidity;BME280_pressure;Samples;Min_cycle;Max_cycle;Signal;HPM_P1;HPM_P2
2024/03/28 00:01:43;;;;;;;2.75;1.38;;;;;9.30;95823.00;;;;7415973;19;20017;-67
2024/03/28 00:04:08;;;;;;;2.30;1.95;;;;;9.10;95815.00;;;;7415150;19;20003;-67
2024/03/28 00:06:34;;;;;;;3.65;2.10;;;;;9.00;95811.00;;;;7410479;19;20006;-67
2024/03/28 00:08:59;;;;;;;2.38;1.80;;;;;8.90;95809.00;;;;7404463;19;20006;-66
2024/03/28 00:11:25;;;;;;;1.80;1.70;;;;;8.80;95811.00;;;;7404626;19;20018;-66
2024/03/28 00:13:50;;;;;;;2.97;1.70;;;;;8.80;95809.00;;;;7406040;19;20044;-66
2024/03/28 00:16:15;;;;;;;2.65;1.60;;;;;8.90;95814.00;;;;7407851;19;20007;-66
2024/03/28 00:18:41;;;;;;;2.15;1.40;;;;;9.00;95808.00;;;;7407184;19;20363;-67
2024/03/28 00:21:06;;;;;;;2.83;2.10;;;;;9.00;95802.00;;;;7401639;19;20032;-68
2024/03/28 00:23:31;;;;;;;2.08;1.48;;;;;8.80;95808.00;;;;7404494;19;20010;-68
2024/03/28 00:25:58;;;;;;;2.05;1.60;;;;;8.50;95812.00;;;;7402305;19;20619;-68
2024/03/28 00:28:24;;;;;;;3.33;1.63;;;;;8.40;95818.00;;;;7400310;19;20003;-68
2024/03/28 00:30:54;;;;;;;2.45;1.63;;;;;8.40;95814.00;;;;7398674;19;20003;-68
2024/03/28 00:33:19;;;;;;;1.83;1.63;;;;;8.50;95816.00;;;;7400211;19;20502;-68
2024/03/28 00:35:46;;;;;;;2.50;1.77;;;;;8.50;95803.00;;;;7395994;19;20006;-68
2024/03/28 00:38:13;;;;;;;2.67;1.60;;;;;8.50;95802.00;;;;7391455;19;20027;-68
2024/03/28 00:40:53;;;;;;;1.60;1.50;;;;;8.40;95797.00;;;;7392496;19;20007;-68
2024/03/28 00:43:19;;;;;;;3.17;1.95;;;;;8.20;95812.00;;;;7395676;19;20010;-68
2024/03/28 00:45:45;;;;;;;2.58;1.85;;;;;8.20;95803.00;;;;7396277;19;20015;-68
2024/03/28 00:48:12;;;;;;;2.20;1.88;;;;;8.10;95807.00;;;;7394115;19;20475;-68
2024/03/28 00:50:38;;;;;;;2.55;1.73;;;;;8.00;95811.00;;;;7395226;19;20002;-68
2024/03/28 00:53:04;;;;;;;2.25;1.80;;;;;7.90;95808.00;;;;7394109;19;20034;-68
2024/03/28 00:55:30;;;;;;;2.72;2.05;;;;;7.80;95808.00;;;;7393979;19;20479;-68
2024/03/28 00:57:55;;;;;;;5.05;2.00;;;;;7.90;95807.00;;;;7393159;19;20021;-68
2024/03/28 01:00:21;;;;;;;2.10;1.90;;;;;7.90;95811.00;;;;7393286;19;20065;-68
2024/03/28 01:02:47;;;;;;;3.95;2.40;;;;;8.00;95817.00;;;;7397691;19;20026;-68
2024/03/28 01:05:13;;;;;;;2.40;1.98;;;;;8.00;95805.00;;;;7393286;19;20006;-68
2024/03/28 01:07:39;;;;;;;2.60;2.10;;;;;7.90;95798.00;;;;7391064;19;20015;-68
2024/03/28 01:10:05;;;;;;;2.53;1.80;;;;;7.80;95805.00;;;;7393796;19;20011;-68
2024/03/28 01:12:30;;;;;;;3.13;1.88;;;;;7.80;95796.00;;;;7393167;19;20006;-68
2024/03/28 01:14:56;;;;;;;3.83;1.80;;;;;7.80;95794.00;;;;7392227;19;20038;-68
2024/03/28 01:17:22;;;;;;;3.35;2.00;;;;;7.80;95793.00;;;;7392556;19;20023;-68
2024/03/28 01:19:48;;;;;;;2.95;2.45;;;;;7.80;95785.00;;;;7392289;19;20056;-68
2024/03/28 01:22:14;;;;;;;4.07;2.17;;;;;7.70;95788.00;;;;7392975;19;20337;-69
2024/03/28 01:24:39;;;;;;;2.95;2.05;;;;;7.70;95791.00;;;;7391087;19;20006;-68
2024/03/28 01:27:04;;;;;;;1.65;1.55;;;;;7.80;95792.00;;;;7390918;19;20020;-68
2024/03/28 01:29:30;;;;;;;3.05;2.05;;;;;7.80;95788.00;;;;7392254;19;20006;-68
2024/03/28 01:31:55;;;;;;;3.08;1.98;;;;;7.80;95783.00;;;;7395386;19;20356;-68
2024/03/28 01:34:21;;;;;;;3.65;1.75;;;;;7.80;95776.00;;;;7391587;19;20009;-68
2024/03/28 01:36:46;;;;;;;2.15;1.95;;;;;7.70;95768.00;;;;7392618;19;20090;-68
2024/03/28 01:39:12;;;;;;;2.13;1.90;;;;;7.70;95775.00;;;;7392969;19;20006;-68
2024/03/28 01:41:37;;;;;;;2.80;1.80;;;;;7.70;95770.00;;;;7391600;19;20010;-66
2024/03/28 01:44:03;;;;;;;3.22;1.90;;;;;7.70;95768.00;;;;7392166;19;20067;-66
2024/03/28 01:46:28;;;;;;;2.25;1.92;;;;;7.70;95769.00;;;;7392264;19;20021;-68
2024/03/28 01:48:54;;;;;;;2.10;1.90;;;;;7.80;95762.00;;;;7392632;19;20375;-68
2024/03/28 01:51:21;;;;;;;1.75;1.52;;;;;7.60;95759.00;;;;7391994;19;20626;-68
2024/03/28 01:53:47;;;;;;;1.80;1.50;;;;;7.40;95752.00;;;;7390320;19;20018;-68
2024/03/28 01:56:14;;;;;;;2.03;1.77;;;;;7.30;95749.00;;;;7392115;19;20010;-68
2024/03/28 01:58:41;;;;;;;2.03;1.65;;;;;7.10;95743.00;;;;7392100;19;20007;-68
2024/03/28 02:01:07;;;;;;;2.10;1.90;;;;;7.10;95741.00;;;;7393367;19;20015;-68
2024/03/28 02:03:33;;;;;;;3.08;2.00;;;;;7.10;95750.00;;;;7393837;19;20003;-68
2024/03/28 02:05:59;;;;;;;2.35;2.00;;;;;7.20;95749.00;;;;7390480;19;20074;-68
2024/03/28 02:08:27;;;;;;;2.15;1.90;;;;;7.20;95749.00;;;;7392251;19;20368;-68
2024/03/28 02:10:53;;;;;;;11.00;2.58;;;;;7.10;95747.00;;;;7391585;19;20007;-68
2024/03/28 02:13:18;;;;;;;1.90;1.67;;;;;7.20;95736.00;;;;7392458;19;20332;-68
2024/03/28 02:15:44;;;;;;;1.67;1.58;;;;;7.20;95729.00;;;;7390620;19;20017;-68
2024/03/28 02:18:09;;;;;;;4.43;1.88;;;;;7.10;95727.00;;;;7389752;19;20386;-68
2024/03/28 02:20:35;;;;;;;2.33;1.85;;;;;7.10;95740.00;;;;7391320;19;20003;-68
2024/03/28 02:23:00;;;;;;;3.38;2.08;;;;;7.10;95732.00;;;;7391380;19;20014;-68
2024/03/28 02:25:26;;;;;;;3.15;2.00;;;;;7.00;95726.00;;;;7390122;19;20024;-68
2024/03/28 02:27:52;;;;;;;2.20;2.00;;;;;6.90;95731.00;;;;7392941;19;20019;-68
2024/03/28 02:30:17;;;;;;;3.55;2.60;;;;;6.90;95726.00;;;;7398467;19;20009;-68
2024/03/28 02:32:42;;;;;;;2.88;2.00;;;;;6.80;95727.00;;;;7400831;19;20009;-68
2024/03/28 02:35:08;;;;;;;3.17;2.20;;;;;6.90;95725.00;;;;7397394;19;20007;-68
2024/03/28 02:37:34;;;;;;;2.50;2.17;;;;;6.90;95731.00;;;;7396350;19;20066;-68
2024/03/28 02:40:01;;;;;;;2.45;1.70;;;;;7.00;95729.00;;;;7398595;19;20003;-68
2024/03/28 02:42:27;;;;;;;2.40;2.20;;;;;6.90;95724.00;;;;7396371;19;20015;-68
2024/03/28 02:44:52;;;;;;;2.03;1.70;;;;;6.80;95721.00;;;;7397444;19;20010;-68
2024/03/28 02:47:18;;;;;;;2.28;1.85;;;;;6.50;95709.00;;;;7395479;19;20038;-68
2024/03/28 02:49:44;;;;;;;2.30;1.92;;;;;6.50;95719.00;;;;7396737;19;20013;-68
2024/03/28 02:52:09;;;;;;;1.77;1.67;;;;;6.50;95718.00;;;;7397664;19;20010;-68
2024/03/28 02:54:34;;;;;;;1.98;1.77;;;;;6.40;95707.00;;;;7398025;19;20010;-68
2024/03/28 02:57:02;;;;;;;2.50;2.13;;;;;6.20;95709.00;;;;7397273;19;20010;-68
2024/03/28 02:59:28;;;;;;;2.22;2.00;;;;;6.10;95708.00;;;;7397025;19;20038;-68
2024/03/28 03:01:53;;;;;;;2.08;1.88;;;;;6.10;95723.00;;;;7401503;19;20340;-68
2024/03/28 03:04:19;;;;;;;2.42;1.75;;;;;6.20;95719.00;;;;7397187;19;20006;-68
2024/03/28 03:06:44;;;;;;;3.95;2.50;;;;;6.10;95709.00;;;;7396909;19;20013;-68
2024/03/28 03:09:10;;;;;;;5.10;2.22;;;;;6.10;95704.00;;;;7397406;19;20011;-66
2024/03/28 03:11:35;;;;;;;3.40;2.38;;;;;6.10;95715.00;;;;7396033;19;20074;-68
2024/03/28 03:14:01;;;;;;;2.78;2.50;;;;;6.00;95704.00;;;;7397254;19;20507;-68
2024/03/28 03:16:26;;;;;;;2.97;2.00;;;;;6.10;95701.00;;;;7396513;19;20463;-68
2024/03/28 03:18:52;;;;;;;1.70;1.60;;;;;6.10;95706.00;;;;7395662;19;20010;-66
2024/03/28 03:21:18;;;;;;;1.80;1.67;;;;;6.10;95692.00;;;;7396421;19;19991;-66
2024/03/28 03:23:49;;;;;;;2.50;2.30;;;;;6.10;95693.00;;;;7395275;19;20010;-66
2024/03/28 03:26:20;;;;;;;2.67;2.20;;;;;6.20;95690.00;;;;7393254;19;20061;-66
2024/03/28 03:34:35;;;;;;;4.05;1.90;;;;;6.30;95699.00;;;;7397928;19;20032;-66
2024/03/28 03:37:01;;;;;;;4.85;2.58;;;;;6.30;95705.00;;;;7395918;19;20018;-66
2024/03/28 03:39:28;;;;;;;2.25;2.05;;;;;6.30;95701.00;;;;7395730;19;20010;-66
2024/03/28 03:41:53;;;;;;;2.20;2.00;;;;;6.10;95697.00;;;;7396396;19;20434;-66
2024/03/28 03:44:19;;;;;;;3.30;1.95;;;;;6.20;95689.00;;;;7396041;19;20038;-66
2024/03/28 03:46:44;;;;;;;3.53;2.17;;;;;6.10;95686.00;;;;7395387;19;20077;-66
2024/03/28 03:49:09;;;;;;;3.83;2.28;;;;;6.10;95682.00;;;;7396601;19;20014;-66
2024/03/28 03:51:35;;;;;;;2.38;2.17;;;;;6.10;95671.00;;;;7395742;19;20447;-67
2024/03/28 03:54:01;;;;;;;4.22;2.10;;;;;6.20;95661.00;;;;7396224;19;20087;-68
2024/03/28 03:56:26;;;;;;;2.08;1.88;;;;;6.20;95655.00;;;;7394724;19;20496;-68
2024/03/28 03:58:52;;;;;;;1.88;1.77;;;;;6.30;95649.00;;;;7395871;19;20007;-68
2024/03/28 04:01:17;;;;;;;5.55;2.45;;;;;6.10;95643.00;;;;7397052;19;20027;-68
2024/03/28 04:03:46;;;;;;;4.43;2.22;;;;;5.90;95636.00;;;;7398025;19;20006;-68
2024/03/28 04:06:12;;;;;;;2.78;2.10;;;;;5.80;95633.00;;;;7394216;19;20015;-67
2024/03/28 04:08:37;;;;;;;2.53;2.15;;;;;5.90;95633.00;;;;7395489;19;19996;-68
2024/03/28 04:11:03;;;;;;;2.67;2.10;;;;;5.90;95625.00;;;;7395391;19;20011;-68
2024/03/28 04:13:28;;;;;;;5.32;3.05;;;;;6.00;95624.00;;;;7395541;19;20018;-68
2024/03/28 04:15:54;;;;;;;3.25;2.13;;;;;6.00;95619.00;;;;7395476;19;20009;-66
2024/03/28 04:18:19;;;;;;;2.78;2.25;;;;;6.10;95618.00;;;;7393812;19;20014;-67
2024/03/28 04:20:45;;;;;;;6.00;3.92;;;;;6.10;95612.00;;;;7395558;19;20018;-66
2024/03/28 04:23:10;;;;;;;2.40;2.17;;;;;5.90;95611.00;;;;7395113;19;20014;-67
2024/03/28 04:25:36;;;;;;;3.40;2.10;;;;;5.90;95614.00;;;;7394309;19;20330;-66
2024/03/28 04:28:01;;;;;;;3.60;1.80;;;;;5.90;95605.00;;;;7393082;19;20006;-66
2024/03/28 04:30:31;;;;;;;2.67;1.90;;;;;6.00;95595.00;;;;7394995;19;20002;-66
2024/03/28 04:32:56;;;;;;;2.45;1.90;;;;;5.80;95589.00;;;;7398994;19;20010;-66
2024/03/28 04:35:23;;;;;;;2.47;2.10;;;;;5.60;95590.00;;;;7395035;19;20010;-66
2024/03/28 04:37:49;;;;;;;3.55;1.75;;;;;5.80;95593.00;;;;7391893;19;20007;-66
2024/03/28 04:40:14;;;;;;;2.28;1.60;;;;;5.80;95579.00;;;;7394756;19;19990;-67
2024/03/28 04:42:40;;;;;;;2.83;1.95;;;;;5.80;95587.00;;;;7392795;19;20010;-67
2024/03/28 04:45:08;;;;;;;3.65;1.95;;;;;5.70;95583.00;;;;7392230;19;20014;-67
2024/03/28 04:47:35;;;;;;;2.83;2.10;;;;;5.60;95584.00;;;;7393385;19;20006;-66
2024/03/28 04:50:01;;;;;;;2.88;1.88;;;;;5.50;95582.00;;;;7392653;19;20039;-66
2024/03/28 04:52:26;;;;;;;2.53;2.10;;;;;5.50;95592.00;;;;7394520;19;20037;-66
2024/03/28 04:54:52;;;;;;;6.03;3.47;;;;;5.60;95580.00;;;;7393999;19;20366;-66
2024/03/28 04:57:17;;;;;;;6.20;2.72;;;;;5.50;95581.00;;;;7392885;19;20032;-67
2024/03/28 04:59:43;;;;;;;2.05;1.85;;;;;5.50;95586.00;;;;7394088;19;20462;-66
2024/03/28 05:02:08;;;;;;;14.55;7.50;;;;;5.50;95590.00;;;;7398008;19;20003;-66
2024/03/28 05:04:34;;;;;;;5.32;2.80;;;;;5.40;95602.00;;;;7393898;19;20007;-66
2024/03/28 05:06:59;;;;;;;3.83;2.10;;;;;5.50;95603.00;;;;7395036;19;20074;-67
2024/03/28 05:09:26;;;;;;;2.53;1.92;;;;;5.50;95597.00;;;;7394694;19;20530;-67
2024/03/28 05:11:52;;;;;;;1.80;1.70;;;;;5.50;95600.00;;;;7394188;19;20010;-67
2024/03/28 05:14:18;;;;;;;1.80;1.70;;;;;5.70;95600.00;;;;7392395;19;20019;-67
2024/03/28 05:16:43;;;;;;;2.50;1.98;;;;;5.70;95599.00;;;;7393758;19;20006;-67
2024/03/28 05:19:09;;;;;;;2.42;1.70;;;;;5.80;95593.00;;;;7393933;19;20010;-67
2024/03/28 05:21:35;;;;;;;2.70;2.00;;;;;5.80;95597.00;;;;7391927;19;20014;-67
2024/03/28 05:24:00;;;;;;;2.05;1.73;;;;;5.90;95598.00;;;;7392273;19;20107;-66
2024/03/28 05:26:26;;;;;;;6.60;4.13;;;;;6.00;95602.00;;;;7393995;19;20038;-66
2024/03/28 05:28:51;;;;;;;3.17;1.92;;;;;6.10;95596.00;;;;7394999;19;20014;-67
2024/03/28 05:31:18;;;;;;;3.65;1.80;;;;;6.20;95605.00;;;;7395378;19;20017;-67
2024/03/28 05:33:43;;;;;;;2.13;1.80;;;;;6.40;95604.00;;;;7393749;19;20085;-67
2024/03/28 05:36:10;;;;;;;4.07;1.50;;;;;6.70;95608.00;;;;7393138;19;20037;-67
2024/03/28 05:38:36;;;;;;;2.08;1.23;;;;;6.90;95612.00;;;;7393534;19;20091;-66
2024/03/28 05:41:02;;;;;;;2.25;1.42;;;;;7.20;95605.00;;;;7392337;19;20459;-66
2024/03/28 05:43:27;;;;;;;2.50;1.33;;;;;7.40;95607.00;;;;7391918;19;20070;-69
2024/03/28 05:45:53;;;;;;;1.92;1.02;;;;;7.60;95613.00;;;;7391649;19;20014;-67
2024/03/28 05:48:19;;;;;;;2.53;1.20;;;;;7.80;95620.00;;;;7389195;19;20014;-67
2024/03/28 05:50:44;;;;;;;2.50;1.58;;;;;7.90;95617.00;;;;7392431;19;20014;-67
2024/03/28 05:53:10;;;;;;;1.55;1.33;;;;;8.10;95624.00;;;;7391612;19;20010;-68
2024/03/28 05:55:36;;;;;;;1.00;0.90;;;;;8.10;95632.00;;;;7391599;19;20014;-67
2024/03/28 05:58:01;;;;;;;1.95;1.20;;;;;8.20;95640.00;;;;7391543;19;20010;-67
2024/03/28 06:00:27;;;;;;;1.60;1.05;;;;;8.30;95644.00;;;;7392689;19;20479;-67
2024/03/28 06:02:52;;;;;;;0.80;0.80;;;;;8.30;95658.00;;;;7402434;19;19995;-68
2024/03/28 06:05:19;;;;;;;4.13;2.05;;;;;8.30;95671.00;;;;7398222;19;20006;-68
2024/03/28 06:07:44;;;;;;;1.75;1.35;;;;;8.30;95675.00;;;;7397697;19;20014;-68
2024/03/28 06:10:10;;;;;;;2.15;0.98;;;;;8.20;95661.00;;;;7399708;19;20479;-68
2024/03/28 06:12:35;;;;;;;2.55;1.00;;;;;8.10;95653.00;;;;7399460;19;20021;-68
2024/03/28 06:15:00;;;;;;;0.98;0.90;;;;;8.10;95655.00;;;;7398474;19;20015;-68
2024/03/28 06:17:26;;;;;;;1.23;1.10;;;;;8.10;95653.00;;;;7398003;19;20007;-68
2024/03/28 06:19:51;;;;;;;1.13;0.90;;;;;8.10;95650.00;;;;7398368;19;20023;-69
2024/03/28 06:22:20;;;;;;;1.42;0.85;;;;;8.10;95659.00;;;;7398005;19;20074;-68
2024/03/28 06:24:45;;;;;;;1.27;1.17;;;;;8.10;95651.00;;;;7397154;19;20007;-68
2024/03/28 06:27:12;;;;;;;1.92;1.17;;;;;8.20;95651.00;;;;7398889;19;20023;-69
2024/03/28 06:29:49;;;;;;;5.30;3.10;;;;;8.20;95659.00;;;;7397501;19;20010;-69
2024/03/28 06:32:29;;;;;;;1.67;1.40;;;;;8.20;95662.00;;;;7400503;19;20018;-69
2024/03/28 06:34:56;;;;;;;2.67;1.48;;;;;8.30;95659.00;;;;7398632;19;20017;-68
2024/03/28 06:37:23;;;;;;;2.22;1.20;;;;;8.30;95654.00;;;;7395041;19;20011;-68
2024/03/28 06:39:54;;;;;;;3.35;1.50;;;;;8.40;95652.00;;;;7398309;19;20002;-69
2024/03/28 06:42:20;;;;;;;2.85;1.55;;;;;8.40;95652.00;;;;7398036;19;20090;-67
2024/03/28 06:44:48;;;;;;;1.58;1.48;;;;;8.40;95653.00;;;;7397735;19;20010;-66
2024/03/28 06:47:14;;;;;;;2.30;1.30;;;;;8.40;95660.00;;;;7397440;19;19998;-66
2024/03/28 06:49:39;;;;;;;3.33;1.85;;;;;8.50;95652.00;;;;7397993;19;20007;-66
2024/03/28 06:52:05;;;;;;;2.58;1.65;;;;;8.60;95662.00;;;;7397492;19;20470;-66
2024/03/28 06:54:31;;;;;;;1.40;1.13;;;;;8.80;95660.00;;;;7398282;19;20018;-69
2024/03/28 06:56:56;;;;;;;2.53;1.60;;;;;8.80;95668.00;;;;7395589;19;20022;-68
2024/03/28 06:59:22;;;;;;;1.60;1.20;;;;;8.80;95666.00;;;;7398104;19;20493;-68
2024/03/28 07:01:47;;;;;;;2.10;1.60;;;;;8.80;95667.00;;;;7400267;19;20006;-68
2024/03/28 07:04:12;;;;;;;2.72;1.45;;;;;8.80;95661.00;;;;7400565;19;20066;-68
2024/03/28 07:06:38;;;;;;;1.15;1.00;;;;;8.90;95669.00;;;;7395942;19;20480;-68
2024/03/28 07:09:03;;;;;;;3.10;1.13;;;;;8.90;95683.00;;;;7396026;19;20014;-68
2024/03/28 07:11:29;;;;;;;1.83;1.45;;;;;9.00;95684.00;;;;7397527;19;20450;-68
2024/03/28 07:13:55;;;;;;;2.80;1.40;;;;;9.10;95681.00;;;;7394804;19;19991;-68
2024/03/28 07:16:20;;;;;;;3.33;1.48;;;;;9.00;95678.00;;;;7397203;19;20052;-68
2024/03/28 07:18:45;;;;;;;1.67;1.23;;;;;9.10;95699.00;;;;7397548;19;20007;-68
2024/03/28 07:21:11;;;;;;;1.60;1.10;;;;;9.10;95718.00;;;;7396122;19;20480;-68
2024/03/28 07:23:40;;;;;;;2.78;1.30;;;;;9.00;95732.00;;;;7397967;19;20010;-68
2024/03/28 07:26:09;;;;;;;1.90;1.20;;;;;8.90;95734.00;;;;7395209;19;20023;-67
2024/03/28 07:28:35;;;;;;;1.52;1.10;;;;;8.80;95727.00;;;;7395263;19;20014;-67
2024/03/28 07:31:01;;;;;;;1.33;0.93;;;;;8.80;95729.00;;;;7397476;19;20009;-67
2024/03/28 07:33:26;;;;;;;1.92;1.50;;;;;8.80;95720.00;;;;7399373;19;20355;-69
2024/03/28 07:35:52;;;;;;;1.10;1.00;;;;;9.00;95737.00;;;;7394951;19;20074;-67
2024/03/28 07:38:18;;;;;;;1.90;1.02;;;;;9.20;95717.00;;;;7395402;19;20003;-66
2024/03/28 07:40:47;;;;;;;1.52;1.00;;;;;9.40;95730.00;;;;7396216;19;20010;-67
2024/03/28 07:43:13;;;;;;;2.92;1.85;;;;;9.40;95741.00;;;;7395358;19;20354;-67
2024/03/28 07:45:42;;;;;;;1.65;1.05;;;;;9.30;95745.00;;;;7395329;19;20011;-66
2024/03/28 07:48:08;;;;;;;1.95;1.20;;;;;9.30;95759.00;;;;7394869;19;20365;-67
2024/03/28 07:50:35;;;;;;;1.67;1.38;;;;;9.30;95755.00;;;;7396652;19;20014;-66
2024/03/28 07:53:00;;;;;;;2.47;1.20;;;;;9.30;95754.00;;;;7396469;19;20377;-66
2024/03/28 07:55:25;;;;;;;1.45;1.05;;;;;9.30;95736.00;;;;7395911;19;20007;-67
2024/03/28 07:57:51;;;;;;;1.92;1.00;;;;;9.40;95705.00;;;;7393342;19;20006;-70
2024/03/28 08:00:17;;;;;;;5.05;1.20;;;;;9.70;95675.00;;;;7396847;19;20086;-65
2024/03/28 08:02:45;;;;;;;1.23;1.13;;;;;10.10;95654.00;;;;7397441;19;20032;-65
2024/03/28 08:05:17;;;;;;;1.63;1.13;;;;;10.40;95662.00;;;;7393698;19;20017;-65
2024/03/28 08:07:44;;;;;;;1.85;1.17;;;;;10.60;95669.00;;;;7394161;19;20007;-65
2024/03/28 08:10:10;;;;;;;2.72;1.20;;;;;10.60;95686.00;;;;7395738;19;20356;-68
2024/03/28 08:12:36;;;;;;;1.75;1.20;;;;;10.60;95707.00;;;;7395704;19;20011;-68
2024/03/28 08:15:05;;;;;;;3.60;1.55;;;;;10.50;95726.00;;;;7394813;19;20018;-67
2024/03/28 08:17:31;;;;;;;2.00;1.35;;;;;10.50;95747.00;;;;7394781;19;20014;-64
2024/03/28 08:19:57;;;;;;;2.28;1.40;;;;;10.50;95769.00;;;;7395013;19;20036;-63
2024/03/28 08:22:23;;;;;;;1.55;1.27;;;;;10.50;95789.00;;;;7394184;19;20328;-64
2024/03/28 08:24:48;;;;;;;2.97;1.25;;;;;10.30;95821.00;;;;7391046;19;20337;-64
2024/03/28 08:27:14;;;;;;;2.05;0.90;;;;;10.10;95814.00;;;;7394836;19;20006;-64
2024/03/28 08:29:40;;;;;;;1.20;1.10;;;;;9.90;95817.00;;;;7395273;19;20462;-64
2024/03/28 08:32:06;;;;;;;2.72;1.70;;;;;9.80;95802.00;;;;7397062;19;20016;-67
2024/03/28 08:34:31;;;;;;;1.70;1.38;;;;;9.80;95801.00;;;;7395456;19;20349;-64
2024/03/28 08:36:57;;;;;;;2.80;1.35;;;;;9.90;95785.00;;;;7394322;19;20013;-64
2024/03/28 08:39:24;;;;;;;2.08;1.58;;;;;9.90;95799.00;;;;7394945;19;20018;-66
2024/03/28 08:41:56;;;;;;;6.38;1.48;;;;;9.90;95810.00;;;;7394360;19;20029;-66
2024/03/28 08:44:22;;;;;;;2.50;1.80;;;;;10.00;95825.00;;;;7392534;19;20044;-66
2024/03/28 08:46:47;;;;;;;2.75;1.17;;;;;10.00;95825.00;;;;7393609;19;20018;-66
2024/03/28 08:49:16;;;;;;;1.50;1.20;;;;;10.00;95849.00;;;;7394223;19;20014;-66
2024/03/28 08:51:42;;;;;;;2.75;1.02;;;;;9.90;95857.00;;;;7393814;19;19999;-65
2024/03/28 08:54:12;;;;;;;1.45;1.10;;;;;9.90;95869.00;;;;7394948;19;20011;-65
2024/03/28 08:56:38;;;;;;;4.35;1.40;;;;;9.90;95871.00;;;;7392488;19;20023;-65
2024/03/28 08:59:04;;;;;;;2.38;1.25;;;;;10.00;95867.00;;;;7392072;19;20014;-65
2024/03/28 09:01:30;;;;;;;1.67;1.27;;;;;10.10;95869.00;;;;7397020;19;20031;-65
2024/03/28 09:03:56;;;;;;;1.95;1.20;;;;;10.30;95890.00;;;;7398145;19;20019;-66
2024/03/28 09:06:22;;;;;;;3.10;1.70;;;;;10.40;95895.00;;;;7392166;19;20021;-65
2024/03/28 09:08:47;;;;;;;2.08;1.35;;;;;10.60;95895.00;;;;7394317;19;20039;-63
2024/03/28 09:11:15;;;;;;;2.72;1.27;;;;;10.70;95905.00;;;;7398147;19;20002;-63
2024/03/28 09:13:41;;;;;;;1.52;1.20;;;;;10.80;95907.00;;;;7400263;19;20002;-63
2024/03/28 09:16:07;;;;;;;1.90;1.17;;;;;10.80;95907.00;;;;7404120;19;20051;-63
2024/03/28 09:18:33;;;;;;;2.90;1.70;;;;;10.80;95916.00;;;;7409239;19;20014;-63
2024/03/28 09:21:08;;;;;;;2.67;1.48;;;;;10.70;95952.00;;;;7410457;19;20006;-63
2024/03/28 09:23:34;;;;;;;2.53;1.55;;;;;10.60;95933.00;;;;7414475;19;20042;-64
2024/03/28 09:25:59;;;;;;;3.03;1.33;;;;;10.30;95941.00;;;;7416724;19;20011;-63
2024/03/28 09:28:25;;;;;;;3.05;0.60;;;;;10.10;95954.00;;;;7420135;19;20034;-63
2024/03/28 09:30:52;;;;;;;1.00;0.63;;;;;9.80;95961.00;;;;7419381;19;20026;-64
2024/03/28 09:33:17;;;;;;;0.40;0.40;;;;;9.50;95967.00;;;;7425199;19;20010;-63
2024/03/28 09:35:44;;;;;;;0.95;0.70;;;;;9.20;95957.00;;;;7421210;19;20376;-63
2024/03/28 09:38:09;;;;;;;2.63;1.00;;;;;8.90;95978.00;;;;7422040;19;20044;-63
2024/03/28 09:40:51;;;;;;;1.25;0.88;;;;;8.70;96003.00;;;;7423895;19;20014;-63
2024/03/28 09:43:18;;;;;;;3.28;2.80;;;;;8.50;95975.00;;;;7423865;19;20011;-63
2024/03/28 09:45:44;;;;;;;1.42;1.33;;;;;8.50;95966.00;;;;7424100;19;20052;-63
2024/03/28 09:48:14;;;;;;;1.67;1.50;;;;;8.80;95951.00;;;;7422360;19;20015;-63
2024/03/28 09:50:41;;;;;;;0.60;0.60;;;;;9.30;95952.00;;;;7421652;19;20470;-63
2024/03/28 09:53:09;;;;;;;1.35;0.80;;;;;9.70;95963.00;;;;7412353;19;20047;-62
2024/03/28 09:55:35;;;;;;;2.72;1.05;;;;;10.00;95964.00;;;;7411993;19;20006;-63
2024/03/28 09:58:03;;;;;;;2.70;0.90;;;;;10.30;95971.00;;;;7411120;19;20020;-61
2024/03/28 10:00:29;;;;;;;1.98;0.82;;;;;10.70;95978.00;;;;7411312;19;20002;-63
2024/03/28 10:03:09;;;;;;;1.30;0.80;;;;;11.00;95985.00;;;;7415055;19;20119;-62
2024/03/28 10:05:35;;;;;;;4.50;0.80;;;;;11.40;95997.00;;;;7408198;19;20469;-64
2024/03/28 10:08:02;;;;;;;0.50;0.50;;;;;11.60;96014.00;;;;7406462;19;20003;-64
2024/03/28 10:10:29;;;;;;;0.68;0.63;;;;;11.60;96031.00;;;;7400780;19;20014;-64
2024/03/28 10:12:55;;;;;;;4.25;1.33;;;;;11.20;96062.00;;;;7393779;19;20463;-64
2024/03/28 10:15:21;;;;;;;1.95;0.57;;;;;10.70;96078.00;;;;7392096;19;20491;-65
2024/03/28 10:18:00;;;;;;;0.63;0.60;;;;;10.20;96087.00;;;;7390781;19;20118;-64
2024/03/28 10:20:27;;;;;;;0.68;0.60;;;;;9.80;96095.00;;;;7394631;19;20639;-64
2024/03/28 10:22:52;;;;;;;1.65;0.82;;;;;9.20;96118.00;;;;7394315;19;20341;-65
2024/03/28 10:25:25;;;;;;;3.42;0.90;;;;;8.70;96136.00;;;;7390571;19;20017;-65
2024/03/28 10:27:56;;;;;;;0.95;0.30;;;;;8.20;96127.00;;;;7389922;19;20007;-65
2024/03/28 10:30:24;;;;;;;1.60;0.40;;;;;8.00;96122.00;;;;7392137;19;20466;-65
2024/03/28 10:33:04;;;;;;;0.38;0.32;;;;;7.70;96117.00;;;;7394978;19;20019;-66
2024/03/28 10:35:41;;;;;;;0.55;0.40;;;;;7.60;96108.00;;;;7391746;19;20095;-66
2024/03/28 10:38:07;;;;;;;1.98;0.45;;;;;7.50;96100.00;;;;7387952;19;20439;-66
2024/03/28 10:40:35;;;;;;;1.70;0.57;;;;;7.60;96114.00;;;;7388944;19;20006;-66
2024/03/28 10:43:04;;;;;;;0.43;0.43;;;;;7.60;96061.00;;;;7391151;19;20408;-66
2024/03/28 10:45:34;;;;;;;1.15;0.40;;;;;7.80;96063.00;;;;7390058;19;20031;-66
2024/03/28 10:48:02;;;;;;;1.27;0.57;;;;;8.10;96053.00;;;;7390282;19;20078;-66
2024/03/28 10:50:52;;;;;;;3.38;0.60;;;;;8.60;96068.00;;;;7398385;19;20086;-66
2024/03/28 10:53:25;;;;;;;3.03;0.68;;;;;8.90;96074.00;;;;7396856;19;20006;-67
2024/03/28 10:56:01;;;;;;;0.50;0.40;;;;;8.80;96083.00;;;;7396806;19;20535;-65
2024/03/28 10:58:29;;;;;;;0.55;0.55;;;;;8.90;96102.00;;;;7396979;19;20470;-63
2024/03/28 11:00:57;;;;;;;0.77;0.50;;;;;9.00;96095.00;;;;7400277;19;20092;-66
2024/03/28 11:03:24;;;;;;;1.75;0.70;;;;;9.20;96097.00;;;;7399871;19;20015;-67
2024/03/28 11:05:50;;;;;;;1.75;1.00;;;;;9.70;96106.00;;;;7396896;19;20054;-65
2024/03/28 11:08:15;;;;;;;0.70;0.70;;;;;10.20;96119.00;;;;7393607;19;20482;-67
2024/03/28 11:10:42;;;;;;;2.50;1.45;;;;;10.50;96117.00;;;;7395083;19;20082;-64
2024/03/28 11:13:08;;;;;;;0.90;0.50;;;;;10.60;96120.00;;;;7397570;19;20082;-66
2024/03/28 11:15:33;;;;;;;1.85;0.80;;;;;10.50;96127.00;;;;7397706;19;20492;-65
2024/03/28 11:17:59;;;;;;;1.58;1.10;;;;;10.70;96118.00;;;;7393437;19;20479;-66
2024/03/28 11:20:25;;;;;;;2.15;0.93;;;;;10.80;96116.00;;;;7396690;19;20019;-65
2024/03/28 11:22:51;;;;;;;1.45;1.00;;;;;10.80;96113.00;;;;7396913;19;20015;-65
2024/03/28 11:25:26;;;;;;;2.00;0.90;;;;;10.80;96124.00;;;;7396303;19;20010;-65
2024/03/28 11:28:11;;;;;;;2.53;0.80;;;;;10.70;96116.00;;;;7395328;19;20011;-65
2024/03/28 11:30:38;;;;;;;2.67;0.90;;;;;11.10;96131.00;;;;7397235;19;20111;-65
2024/03/28 11:33:11;;;;;;;1.92;0.90;;;;;11.40;96127.00;;;;7401595;19;20091;-65
2024/03/28 11:35:40;;;;;;;0.80;0.80;;;;;11.80;96139.00;;;;7397009;19;20015;-65
2024/03/28 11:38:11;;;;;;;1.45;0.70;;;;;12.00;96143.00;;;;7393452;19;20018;-65
2024/03/28 11:40:37;;;;;;;1.33;0.88;;;;;12.00;96148.00;;;;7396958;19;20064;-65
2024/03/28 11:43:22;;;;;;;1.63;0.80;;;;;12.00;96141.00;;;;7397013;19;20018;-65
2024/03/28 11:45:55;;;;;;;2.17;0.70;;;;;11.80;96134.00;;;;7403206;19;20016;-65
2024/03/28 11:48:22;;;;;;;2.47;0.77;;;;;11.90;96139.00;;;;7404710;19;20015;-65
2024/03/28 11:50:49;;;;;;;4.30;1.10;;;;;12.00;96140.00;;;;7398963;19;20014;-65
2024/03/28 11:53:14;;;;;;;0.60;0.50;;;;;12.10;96140.00;;;;7396626;19;20513;-64
2024/03/28 11:55:44;;;;;;;2.40;0.60;;;;;12.20;96145.00;;;;7400770;19;20015;-65
2024/03/28 11:58:12;;;;;;;0.77;0.60;;;;;12.20;96141.00;;;;7392674;19;20558;-66
2024/03/28 12:00:38;;;;;;;3.15;0.70;;;;;12.30;96141.00;;;;7395890;19;20030;-65
2024/03/28 12:03:04;;;;;;;0.50;0.50;;;;;12.50;96141.00;;;;7401158;19;20003;-65
2024/03/28 12:05:30;;;;;;;1.17;0.60;;;;;12.60;96139.00;;;;7396281;19;20459;-65
2024/03/28 12:07:57;;;;;;;1.75;0.95;;;;;12.80;96133.00;;;;7393744;19;20014;-66
2024/03/28 12:10:22;;;;;;;0.70;0.70;;;;;13.00;96150.00;;;;7394933;19;20026;-66
2024/03/28 12:12:48;;;;;;;1.65;0.55;;;;;13.00;96148.00;;;;7397109;19;20551;-64
2024/03/28 12:15:14;;;;;;;1.40;0.40;;;;;13.20;96141.00;;;;7394916;19;20021;-64
2024/03/28 12:17:40;;;;;;;1.02;0.60;;;;;13.40;96144.00;;;;7394764;19;20031;-64
2024/03/28 12:20:10;;;;;;;1.95;0.50;;;;;13.50;96156.00;;;;7396512;19;20003;-64
2024/03/28 12:22:36;;;;;;;3.45;0.50;;;;;13.20;96166.00;;;;7395206;19;20018;-64
2024/03/28 12:25:03;;;;;;;1.42;0.60;;;;;12.90;96174.00;;;;7393889;19;20007;-65
2024/03/28 12:27:28;;;;;;;1.92;0.73;;;;;12.70;96171.00;;;;7394408;19;20103;-64
2024/03/28 12:30:05;;;;;;;1.48;0.52;;;;;12.50;96176.00;;;;7396279;19;20479;-64